createdAt,value
2023-02-13T00:00:02.869Z,514.00
2023-02-13T00:01:02.932Z,514.00
2023-02-13T00:02:03.053Z,511.00
2023-02-13T00:03:03.066Z,517.00
2023-02-13T00:36:05.198Z,511.00
2023-02-13T00:37:05.263Z,514.00
2023-02-13T00:38:05.321Z,513.00
2023-02-13T00:39:05.389Z,516.00
2023-02-13T00:40:05.522Z,512.00
2023-02-13T00:41:05.520Z,513.00
2023-02-13T00:42:05.592Z,512.00
2023-02-13T00:43:05.664Z,512.00
2023-02-13T00:44:05.720Z,510.00
2023-02-13T00:45:05.800Z,510.00
2023-02-13T00:46:05.891Z,507.00
2023-02-13T00:47:05.969Z,509.00
2023-02-13T00:48:06.012Z,510.00
2023-02-13T00:49:06.050Z,512.00
2023-02-13T00:50:06.133Z,509.00
2023-02-13T00:51:06.194Z,509.00
2023-02-13T00:52:06.245Z,514.00
2023-02-13T00:53:06.327Z,508.00
2023-02-13T02:54:15.335Z,512.00
2023-02-13T03:01:15.301Z,509.00
2023-02-13T03:02:15.279Z,507.00
2023-02-13T03:03:15.360Z,510.00
2023-02-13T03:04:15.472Z,513.00
2023-02-13T05:17:27.334Z,507.00
2023-02-13T05:18:25.180Z,514.00
2023-02-13T05:19:25.199Z,515.00
2023-02-13T05:20:25.239Z,513.00
2023-02-13T05:21:25.257Z,512.00
2023-02-13T05:22:25.291Z,518.00
2023-02-13T05:23:25.288Z,512.00
2023-02-13T05:24:25.385Z,515.00
2023-02-13T05:25:25.328Z,508.00
2023-02-13T05:26:25.341Z,510.00
2023-02-13T05:27:25.365Z,510.00
2023-02-13T05:28:25.403Z,511.00
2023-02-13T05:29:25.437Z,518.00
2023-02-13T05:30:25.443Z,511.00
2023-02-13T05:31:25.611Z,509.00
2023-02-13T05:50:25.841Z,508.00
2023-02-13T05:51:25.859Z,510.00
2023-02-13T05:52:25.870Z,509.00
2023-02-13T05:53:25.891Z,513.00
2023-02-13T05:54:25.938Z,515.00
2023-02-13T05:55:25.939Z,513.00
2023-02-13T05:56:25.948Z,511.00
2023-02-13T05:57:25.959Z,514.00
2023-02-13T05:58:25.973Z,517.00
2023-02-13T05:59:25.986Z,516.00
2023-02-13T06:00:26.009Z,506.00
2023-02-13T06:01:26.069Z,510.00
2023-02-13T06:02:26.156Z,514.00
2023-02-13T06:03:26.258Z,512.00
2023-02-13T06:04:26.308Z,517.00
2023-02-13T06:05:26.375Z,508.00
2023-02-13T06:06:26.438Z,515.00
2023-02-13T06:07:26.508Z,513.00
2023-02-13T06:08:26.596Z,507.00
2023-02-13T06:10:26.945Z,514.00
2023-02-13T06:11:27.045Z,518.00
2023-02-13T06:12:27.113Z,512.00
2023-02-13T06:13:27.192Z,511.00
2023-02-13T06:14:27.275Z,513.00
2023-02-13T06:15:27.358Z,513.00
2023-02-13T06:16:27.495Z,511.00
2023-02-13T06:17:27.502Z,518.00
2023-02-13T06:18:27.585Z,511.00
2023-02-13T06:20:27.730Z,508.00
2023-02-13T06:21:27.802Z,512.00
2023-02-13T06:22:27.877Z,513.00
2023-02-13T06:23:27.945Z,510.00
2023-02-13T06:24:28.030Z,509.00
2023-02-13T06:25:28.102Z,511.00
2023-02-13T06:26:28.186Z,507.00
2023-02-13T06:27:28.343Z,510.00
2023-02-13T06:28:28.364Z,509.00
2023-02-13T06:29:28.419Z,514.00
2023-02-13T06:30:28.518Z,513.00
2023-02-13T06:31:28.731Z,515.00
2023-02-13T06:32:28.657Z,513.00
2023-02-13T06:33:28.746Z,515.00
2023-02-13T07:55:35.216Z,516.00
2023-02-13T07:56:35.295Z,512.00
2023-02-13T07:57:35.382Z,512.00
2023-02-13T07:58:35.454Z,509.00
2023-02-13T07:59:35.539Z,515.00
2023-02-13T08:00:35.621Z,516.00
2023-02-13T08:01:35.728Z,512.00
2023-02-13T08:02:35.792Z,512.00
2023-02-13T08:03:36.052Z,514.00
2023-02-13T08:04:35.942Z,505.00
2023-02-13T08:05:36.029Z,513.00
2023-02-13T08:06:36.102Z,512.00
2023-02-13T08:07:36.183Z,511.00
2023-02-13T08:08:36.256Z,512.00
2023-02-13T08:09:37.557Z,510.00
2023-02-13T08:10:36.478Z,511.00
2023-02-13T08:14:36.793Z,512.00
2023-02-13T08:16:36.975Z,504.00
2023-02-13T09:19:40.236Z,506.00
2023-02-13T09:24:40.463Z,502.00
2023-02-13T09:34:40.841Z,513.00
2023-02-13T09:35:40.868Z,511.00
2023-02-13T09:37:40.921Z,516.00
2023-02-13T09:38:40.947Z,512.00
2023-02-13T09:39:40.968Z,511.00
2023-02-13T09:40:40.973Z,509.00
2023-02-13T09:41:41.033Z,515.00
2023-02-13T09:42:41.020Z,510.00
2023-02-13T09:43:41.036Z,510.00
2023-02-13T09:44:41.047Z,515.00
2023-02-13T09:45:41.065Z,513.00
2023-02-13T09:46:41.156Z,508.00
2023-02-13T09:48:41.133Z,511.00
2023-02-13T09:49:41.143Z,508.00
2023-02-13T09:51:41.164Z,511.00
2023-02-13T09:52:41.182Z,515.00
2023-02-13T09:53:41.247Z,509.00
2023-02-13T09:54:41.287Z,508.00
2023-02-13T09:55:41.298Z,518.00
2023-02-13T09:56:41.230Z,510.00
2023-02-13T09:57:41.243Z,510.00
2023-02-13T09:58:41.252Z,518.00
2023-02-13T09:59:41.268Z,516.00
2023-02-13T10:00:41.271Z,507.00
2023-02-13T10:01:41.389Z,516.00
2023-02-13T10:02:41.302Z,511.00
2023-02-13T10:03:41.298Z,509.00
2023-02-13T10:04:41.359Z,518.00
2023-02-13T10:05:41.323Z,511.00
2023-02-13T10:06:41.335Z,515.00
2023-02-13T10:07:41.351Z,515.00
2023-02-13T10:08:41.355Z,515.00
2023-02-13T10:09:41.361Z,510.00
2023-02-13T10:10:41.382Z,512.00
2023-02-13T10:11:41.403Z,517.00
2023-02-13T10:12:41.384Z,516.00
2023-02-13T10:13:41.416Z,515.00
2023-02-13T10:14:41.403Z,520.00
2023-02-13T10:15:41.491Z,516.00
2023-02-13T10:17:41.412Z,519.00
2023-02-13T10:18:41.430Z,523.00
2023-02-13T10:19:41.436Z,519.00
2023-02-13T10:20:41.522Z,513.00
2023-02-13T10:21:41.443Z,515.00
2023-02-13T10:22:41.446Z,516.00
2023-02-13T10:23:41.454Z,512.00
2023-02-13T10:24:41.459Z,519.00
2023-02-13T10:25:41.465Z,519.00
2023-02-13T10:26:41.464Z,517.00
2023-02-13T10:27:41.473Z,515.00
2023-02-13T10:28:41.524Z,513.00
2023-02-13T10:29:41.475Z,523.00
2023-02-13T10:30:41.491Z,516.00
2023-02-13T10:31:41.702Z,518.00
2023-02-13T10:32:41.476Z,518.00
2023-02-13T10:33:41.502Z,522.00
2023-02-13T10:34:41.478Z,522.00
2023-02-13T10:35:41.488Z,524.00
2023-02-13T10:36:41.480Z,522.00
2023-02-13T10:37:41.495Z,516.00
2023-02-13T10:38:41.491Z,518.00
2023-02-13T10:39:41.517Z,522.00
2023-02-13T10:40:41.499Z,520.00
2023-02-13T10:41:41.512Z,516.00
2023-02-13T10:42:41.518Z,519.00
2023-02-13T10:43:41.508Z,521.00
2023-02-13T10:44:41.531Z,524.00
2023-02-13T10:45:41.537Z,518.00
2023-02-13T10:46:41.578Z,522.00
2023-02-13T10:47:41.561Z,525.00
2023-02-13T10:48:41.548Z,521.00
2023-02-13T10:49:41.566Z,520.00
2023-02-13T10:50:41.561Z,521.00
2023-02-13T10:51:41.558Z,522.00
2023-02-13T10:52:41.585Z,525.00
2023-02-13T10:53:41.572Z,519.00
2023-02-13T10:54:41.600Z,522.00
2023-02-13T10:55:41.602Z,517.00
2023-02-13T10:56:41.603Z,522.00
2023-02-13T10:57:41.607Z,521.00
2023-02-13T10:58:41.617Z,524.00
2023-02-13T10:59:41.625Z,526.00
2023-02-13T11:00:43.121Z,522.00
2023-02-13T11:01:41.691Z,523.00
2023-02-13T11:02:41.653Z,522.00
2023-02-13T11:03:41.652Z,526.00
2023-02-13T11:04:41.742Z,522.00
2023-02-13T11:05:41.667Z,518.00
2023-02-13T11:06:41.679Z,522.00
2023-02-13T11:07:41.685Z,523.00
2023-02-13T11:08:41.702Z,526.00
2023-02-13T11:09:41.721Z,524.00
2023-02-13T11:10:41.735Z,519.00
2023-02-13T11:11:41.755Z,521.00
2023-02-13T11:12:41.754Z,518.00
2023-02-13T11:13:41.771Z,521.00
2023-02-13T11:14:41.780Z,524.00
2023-02-13T11:15:41.823Z,523.00
2023-02-13T11:16:41.824Z,519.00
2023-02-13T11:17:41.842Z,527.00
2023-02-13T11:18:41.847Z,525.00
2023-02-13T11:19:41.862Z,525.00
2023-02-13T11:20:41.878Z,527.00
2023-02-13T11:21:41.913Z,525.00
2023-02-13T11:22:41.938Z,524.00
2023-02-13T11:23:41.953Z,527.00
2023-02-13T11:24:41.993Z,527.00
2023-02-13T11:25:42.008Z,518.00
2023-02-13T11:26:42.024Z,521.00
2023-02-13T11:27:42.056Z,525.00
2023-02-13T11:28:42.128Z,524.00
2023-02-13T11:29:42.110Z,522.00
2023-02-13T11:30:42.136Z,522.00
2023-02-13T11:31:42.264Z,528.00
2023-02-13T11:32:42.201Z,528.00
2023-02-13T12:25:45.176Z,527.00
2023-02-13T12:26:45.252Z,528.00
2023-02-13T12:27:45.296Z,525.00
2023-02-13T12:28:45.377Z,526.00
2023-02-13T12:29:45.452Z,527.00
2023-02-13T12:30:45.564Z,521.00
2023-02-13T12:31:45.641Z,528.00
2023-02-13T15:21:52.138Z,531.00
2023-02-13T15:22:52.170Z,524.00
2023-02-13T15:23:52.191Z,533.00
2023-02-13T15:25:52.238Z,534.00
2023-02-13T15:26:52.274Z,531.00
2023-02-13T15:27:52.295Z,526.00
2023-02-13T15:28:52.325Z,530.00
2023-02-13T15:29:52.384Z,526.00
2023-02-13T15:30:52.564Z,533.00
2023-02-13T15:31:52.562Z,529.00
2023-02-13T15:32:52.427Z,532.00
2023-02-13T15:33:52.462Z,527.00
2023-02-13T15:34:52.490Z,529.00
2023-02-13T15:35:52.523Z,530.00
2023-02-13T15:36:52.547Z,532.00
2023-02-13T15:37:52.575Z,525.00
2023-02-13T15:38:52.590Z,528.00
2023-02-13T15:39:52.634Z,533.00
2023-02-13T15:40:52.649Z,527.00
2023-02-13T15:41:52.678Z,527.00
2023-02-13T15:42:52.692Z,528.00
2023-02-13T15:43:53.625Z,527.00
2023-02-13T15:44:52.746Z,531.00
2023-02-13T15:45:52.769Z,527.00
2023-02-13T15:46:52.811Z,526.00
2023-02-13T15:47:52.829Z,527.00
2023-02-13T15:48:52.847Z,534.00
2023-02-13T15:49:52.883Z,528.00
2023-02-13T15:50:52.906Z,530.00
2023-02-13T15:51:52.938Z,532.00
2023-02-13T15:52:52.965Z,532.00
2023-02-13T15:53:53.648Z,530.00
2023-02-13T15:54:53.140Z,531.00
2023-02-13T15:55:53.065Z,523.00
2023-02-13T15:56:53.094Z,529.00
2023-02-13T15:57:53.115Z,527.00
2023-02-13T15:58:53.150Z,527.00
2023-02-13T15:59:53.205Z,530.00
2023-02-13T16:00:53.219Z,528.00
2023-02-13T16:01:53.295Z,522.00
2023-02-13T16:02:53.304Z,532.00
2023-02-13T16:03:53.329Z,530.00
2023-02-13T16:04:53.360Z,528.00
2023-02-13T16:58:55.156Z,527.00
2023-02-13T16:59:55.187Z,522.00
2023-02-13T17:00:55.243Z,526.00
2023-02-13T17:01:55.258Z,521.00
2023-02-13T17:02:55.313Z,526.00
2023-02-13T17:03:55.342Z,523.00
2023-02-13T17:04:55.372Z,526.00
2023-02-13T17:05:55.481Z,523.00
2023-02-13T17:06:55.434Z,520.00
2023-02-13T17:07:55.484Z,524.00
2023-02-13T17:08:55.496Z,523.00
2023-02-13T17:09:55.533Z,528.00
2023-02-13T17:10:55.870Z,526.00
2023-02-13T17:11:55.605Z,522.00
2023-02-13T17:12:55.681Z,523.00
2023-02-13T17:13:55.670Z,525.00
2023-02-13T17:14:55.692Z,525.00
2023-02-13T17:15:55.736Z,523.00
2023-02-13T17:16:55.777Z,526.00
2023-02-13T17:17:55.814Z,525.00
2023-02-13T17:18:55.845Z,521.00
2023-02-13T17:19:55.897Z,522.00
2023-02-13T17:20:55.959Z,519.00
2023-02-13T17:21:55.948Z,529.00
2023-02-13T17:22:56.004Z,523.00
2023-02-13T17:23:56.015Z,528.00
2023-02-13T17:24:56.184Z,524.00
2023-02-13T17:25:56.094Z,523.00
2023-02-13T17:26:56.121Z,524.00
2023-02-13T17:27:56.207Z,524.00
2023-02-13T17:28:56.183Z,519.00
2023-02-13T17:29:56.247Z,528.00
2023-02-13T17:30:56.774Z,520.00
2023-02-13T17:31:56.397Z,519.00
2023-02-13T17:32:56.352Z,526.00
2023-02-13T17:33:56.374Z,522.00
2023-02-13T17:34:56.425Z,524.00
2023-02-13T17:35:56.455Z,524.00
2023-02-13T17:36:56.500Z,522.00
2023-02-13T17:37:56.528Z,523.00
2023-02-13T17:38:56.572Z,525.00
2023-02-13T17:39:56.603Z,525.00
2023-02-13T17:40:56.965Z,523.00
2023-02-13T17:41:56.693Z,526.00
2023-02-13T17:42:56.739Z,522.00
2023-02-13T17:43:56.787Z,525.00
2023-02-13T17:44:56.820Z,523.00
2023-02-13T17:45:58.020Z,525.00
2023-02-13T17:46:56.891Z,524.00
2023-02-13T17:47:56.931Z,524.00
2023-02-13T17:48:56.977Z,522.00
2023-02-13T17:50:08.300Z,522.00
2023-02-13T17:51:57.022Z,523.00
2023-02-13T17:52:57.033Z,525.00
2023-02-13T17:53:57.053Z,525.00
2023-02-13T17:54:57.058Z,525.00
2023-02-13T17:55:57.091Z,525.00
2023-02-13T17:56:57.080Z,524.00
2023-02-13T17:57:57.095Z,524.00
2023-02-13T17:58:57.110Z,525.00
2023-02-13T17:59:57.133Z,521.00
2023-02-13T18:12:57.341Z,519.00
2023-02-13T18:15:57.475Z,517.00
2023-02-13T20:59:05.704Z,518.00
2023-02-13T21:00:05.192Z,506.00
2023-02-13T21:01:05.263Z,510.00
2023-02-13T21:02:05.279Z,518.00
2023-02-13T21:03:05.390Z,517.00
2023-02-13T21:04:05.375Z,520.00
2023-02-13T21:05:05.445Z,521.00
2023-02-13T21:06:05.502Z,518.00
2023-02-13T21:07:05.543Z,515.00
2023-02-13T21:08:05.604Z,515.00
2023-02-13T21:09:05.648Z,510.00
2023-02-13T21:10:05.714Z,516.00
2023-02-13T21:11:05.770Z,518.00
2023-02-13T21:12:05.837Z,511.00
2023-02-13T21:13:06.704Z,510.00
2023-02-13T21:14:05.986Z,513.00
2023-02-13T21:15:05.988Z,517.00
2023-02-13T21:16:06.131Z,514.00
2023-02-13T21:17:06.111Z,517.00
2023-02-13T21:18:06.152Z,514.00
2023-02-13T21:19:06.214Z,514.00
2023-02-13T21:20:06.294Z,516.00
2023-02-13T21:21:06.341Z,512.00
2023-02-13T21:22:06.443Z,514.00
2023-02-13T21:23:06.445Z,522.00
2023-02-13T21:24:08.236Z,517.00
2023-02-13T21:25:06.567Z,517.00
2023-02-13T21:26:06.608Z,515.00
2023-02-13T21:27:06.674Z,513.00
2023-02-13T21:28:06.736Z,522.00
2023-02-13T21:29:06.798Z,519.00
2023-02-13T21:30:06.897Z,516.00
2023-02-13T21:31:06.965Z,521.00
2023-02-13T21:32:07.026Z,518.00
2023-02-13T21:33:07.057Z,519.00
2023-02-13T21:34:07.100Z,515.00
2023-02-13T21:35:07.156Z,520.00
2023-02-13T21:36:07.275Z,518.00
2023-02-13T21:37:07.319Z,512.00
2023-02-13T21:38:07.358Z,522.00
2023-02-13T21:39:07.415Z,510.00
2023-02-13T21:40:07.478Z,512.00
2023-02-13T21:41:07.545Z,515.00
2023-02-13T21:42:07.596Z,524.00
2023-02-13T21:43:07.666Z,513.00
2023-02-13T21:44:07.718Z,521.00
2023-02-13T21:45:07.770Z,517.00
2023-02-13T21:46:07.988Z,522.00
2023-02-13T21:47:07.966Z,514.00
2023-02-13T21:48:07.958Z,511.00
2023-02-13T21:49:09.006Z,520.00
2023-02-13T21:50:08.082Z,519.00
2023-02-13T21:51:08.137Z,515.00
2023-02-13T21:52:08.717Z,508.00
2023-02-13T21:53:08.254Z,520.00
2023-02-13T21:54:08.317Z,515.00
2023-02-13T21:55:08.948Z,516.00
2023-02-13T21:56:08.734Z,518.00
2023-02-13T21:57:08.495Z,514.00
2023-02-13T21:58:08.564Z,518.00
2023-02-13T21:59:08.625Z,513.00
2023-02-13T22:00:08.781Z,508.00
2023-02-13T22:01:14.165Z,516.00
2023-02-13T22:02:09.863Z,516.00
2023-02-13T22:03:08.867Z,517.00
2023-02-13T22:04:08.789Z,517.00
2023-02-13T22:05:08.809Z,517.00
2023-02-13T22:06:08.853Z,512.00
2023-02-13T22:07:08.826Z,515.00
2023-02-13T22:08:08.865Z,515.00
2023-02-13T22:09:08.851Z,512.00
2023-02-13T22:10:08.902Z,517.00
2023-02-13T22:11:08.884Z,519.00
2023-02-13T22:12:08.939Z,514.00
2023-02-13T22:13:08.932Z,514.00
2023-02-13T22:14:08.995Z,515.00
2023-02-13T22:15:09.061Z,512.00
2023-02-13T22:16:09.116Z,517.00
2023-02-13T22:17:09.287Z,508.00
2023-02-13T22:18:09.240Z,508.00
2023-02-13T22:19:09.741Z,517.00
2023-02-13T22:20:09.365Z,510.00
2023-02-13T22:21:09.434Z,518.00
2023-02-13T22:22:09.488Z,507.00
2023-02-13T22:23:09.561Z,513.00
2023-02-13T22:24:09.737Z,511.00
2023-02-13T22:25:09.677Z,510.00
2023-02-13T22:26:09.734Z,511.00
2023-02-13T22:27:09.796Z,509.00
2023-02-13T23:49:15.276Z,510.00
2023-02-13T23:50:15.363Z,513.00
2023-02-13T23:51:15.413Z,505.00
2023-02-13T23:52:15.560Z,513.00
